createdAt,value
2023-03-08T00:01:23.822Z,5.69
2023-03-08T00:03:58.496Z,5.67
2023-03-08T00:06:27.665Z,5.69
2023-03-08T00:08:59.993Z,5.64
2023-03-08T00:11:28.891Z,5.64
2023-03-08T00:13:56.065Z,5.66
2023-03-08T00:16:23.709Z,5.63
2023-03-08T00:18:50.642Z,5.61
2023-03-08T00:21:19.065Z,5.62
2023-03-08T00:23:46.932Z,5.63
2023-03-08T00:26:14.667Z,5.63
2023-03-08T00:28:41.755Z,5.53
2023-03-08T00:31:12.472Z,5.41
2023-03-08T00:33:41.296Z,5.43
2023-03-08T00:36:17.118Z,5.40
2023-03-08T00:38:45.844Z,5.43
2023-03-08T00:41:12.790Z,5.39
2023-03-08T00:43:43.658Z,5.39
2023-03-08T00:46:12.432Z,5.40
2023-03-08T00:48:40.268Z,5.38
2023-03-08T00:51:07.463Z,5.36
2023-03-08T00:53:34.706Z,5.35
2023-03-08T00:56:01.676Z,5.36
2023-03-08T00:58:30.850Z,5.36
2023-03-08T01:00:59.174Z,5.35
2023-03-08T01:03:27.056Z,5.34
2023-03-08T01:05:56.410Z,5.35
2023-03-08T01:08:26.371Z,5.35
2023-03-08T01:11:00.420Z,5.35
2023-03-08T01:13:32.498Z,5.32
2023-03-08T01:16:00.731Z,5.31
2023-03-08T01:18:28.563Z,5.30
2023-03-08T01:21:04.321Z,5.23
2023-03-08T01:23:32.328Z,5.19
2023-03-08T01:26:06.992Z,5.19
2023-03-08T01:28:34.614Z,5.17
2023-03-08T01:31:04.577Z,5.17
2023-03-08T01:33:31.947Z,5.15
2023-03-08T01:35:59.126Z,5.12
2023-03-08T01:38:26.277Z,5.09
2023-03-08T01:41:01.597Z,5.08
2023-03-08T01:43:36.526Z,5.08
2023-03-08T01:46:29.938Z,5.04
2023-03-08T01:49:13.555Z,4.94
2023-03-08T01:51:59.078Z,4.85
2023-03-08T01:54:42.701Z,4.74
2023-03-08T01:57:21.976Z,4.65
2023-03-08T01:59:51.790Z,4.56
2023-03-08T02:02:29.769Z,4.56
2023-03-08T02:04:56.633Z,4.51
2023-03-08T02:07:23.593Z,4.42
2023-03-08T02:09:50.780Z,4.35
2023-03-08T02:12:18.396Z,4.34
2023-03-08T02:14:45.743Z,4.26
2023-03-08T02:17:13.080Z,4.19
2023-03-08T02:20:10.973Z,4.10
2023-03-08T02:22:40.833Z,4.07
2023-03-08T02:25:21.090Z,4.02
2023-03-08T02:27:50.017Z,4.14
2023-03-08T02:30:24.170Z,4.12
2023-03-08T02:32:51.132Z,4.13
2023-03-08T02:35:19.097Z,4.16
2023-03-08T02:37:45.946Z,4.09
2023-03-08T02:40:13.799Z,4.03
2023-03-08T02:42:40.971Z,4.01
2023-03-08T02:45:08.973Z,4.02
2023-03-08T02:47:35.920Z,4.02
2023-03-08T02:50:02.727Z,4.03
2023-03-08T02:52:29.743Z,4.03
2023-03-08T02:54:56.508Z,4.04
2023-03-08T02:57:23.271Z,4.10
2023-03-08T02:59:50.010Z,4.07
2023-03-08T03:02:16.872Z,4.07
2023-03-08T03:04:43.684Z,4.11
2023-03-08T03:07:10.447Z,4.07
2023-03-08T03:09:37.231Z,4.08
2023-03-08T03:12:04.247Z,4.05
2023-03-08T03:14:32.771Z,4.02
2023-03-08T03:16:59.560Z,4.06
2023-03-08T03:19:26.435Z,4.05
2023-03-08T03:21:53.175Z,4.00
2023-03-08T03:24:19.978Z,3.96
2023-03-08T03:26:49.451Z,3.89
2023-03-08T03:29:17.864Z,3.88
2023-03-08T03:31:45.251Z,3.85
2023-03-08T03:34:12.244Z,3.85
2023-03-08T03:36:39.088Z,3.83
2023-03-08T03:39:06.418Z,3.86
2023-03-08T03:41:34.424Z,3.85
2023-03-08T03:44:01.317Z,3.81
2023-03-08T03:46:28.247Z,3.84
2023-03-08T03:48:55.002Z,3.82
2023-03-08T03:51:23.536Z,3.80
2023-03-08T03:53:50.841Z,3.80
2023-03-08T03:56:22.823Z,3.84
2023-03-08T03:58:51.175Z,3.89
2023-03-08T04:01:28.873Z,3.94
2023-03-08T04:03:57.086Z,4.00
2023-03-08T04:06:27.995Z,4.02
2023-03-08T04:09:03.989Z,3.97
2023-03-08T04:11:40.732Z,3.95
2023-03-08T04:14:08.549Z,3.98
2023-03-08T04:16:38.732Z,4.01
2023-03-08T04:19:10.957Z,4.08
2023-03-08T04:21:37.922Z,4.09
2023-03-08T04:24:05.408Z,4.10
2023-03-08T04:26:32.332Z,4.06
2023-03-08T04:28:59.303Z,3.96
2023-03-08T04:31:29.171Z,3.91
2023-03-08T04:33:58.105Z,3.81
2023-03-08T04:36:25.012Z,3.72
2023-03-08T04:38:52.751Z,3.77
2023-03-08T04:41:20.127Z,3.78
2023-03-08T04:43:51.764Z,3.78
2023-03-08T04:46:21.512Z,3.89
2023-03-08T04:48:48.873Z,3.97
2023-03-08T04:51:16.976Z,4.02
2023-03-08T04:53:45.333Z,4.04
2023-03-08T04:56:14.552Z,4.04
2023-03-08T04:58:42.487Z,4.05
2023-03-08T05:01:29.804Z,4.03
2023-03-08T05:03:57.869Z,4.05
2023-03-08T05:06:27.366Z,4.08
2023-03-08T05:08:55.807Z,4.05
2023-03-08T05:11:26.725Z,4.02
2023-03-08T05:13:56.352Z,4.05
2023-03-08T05:16:24.231Z,4.08
2023-03-08T05:18:51.044Z,4.07
2023-03-08T05:21:22.024Z,4.08
2023-03-08T05:23:48.840Z,4.14
2023-03-08T05:26:17.867Z,4.17
2023-03-08T05:28:45.492Z,4.22
2023-03-08T05:31:16.642Z,4.16
2023-03-08T05:33:46.536Z,4.10
2023-03-08T05:36:15.401Z,4.12
2023-03-08T05:38:42.645Z,4.18
2023-03-08T05:41:14.298Z,4.19
2023-03-08T05:43:42.509Z,4.17
2023-03-08T05:46:14.919Z,4.12
2023-03-08T05:48:42.482Z,4.09
2023-03-08T05:51:14.838Z,3.98
2023-03-08T05:53:42.493Z,3.94
2023-03-08T05:56:28.350Z,4.00
2023-03-08T05:58:55.383Z,4.10
2023-03-08T06:01:26.368Z,4.06
2023-03-08T06:03:57.254Z,4.01
2023-03-08T06:06:27.314Z,4.00
2023-03-08T06:08:56.326Z,3.99
2023-03-08T06:11:23.731Z,3.99
2023-03-08T06:13:50.666Z,4.00
2023-03-08T06:16:17.592Z,4.00
2023-03-08T06:18:44.635Z,3.97
2023-03-08T06:21:18.428Z,3.99
2023-03-08T06:23:46.093Z,4.03
2023-03-08T06:26:14.378Z,4.01
2023-03-08T06:28:42.028Z,4.08
2023-03-08T06:31:14.251Z,4.17
2023-03-08T06:33:42.214Z,4.22
2023-03-08T06:36:18.990Z,4.28
2023-03-08T06:38:46.833Z,4.32
2023-03-08T06:41:16.554Z,4.35
2023-03-08T06:43:43.690Z,4.29
2023-03-08T06:46:14.292Z,4.20
2023-03-08T06:48:41.741Z,4.20
2023-03-08T06:51:09.094Z,4.20
2023-03-08T06:53:36.181Z,4.22
2023-03-08T06:56:04.522Z,4.19
2023-03-08T06:58:31.685Z,4.22
2023-03-08T07:01:00.047Z,4.28
2023-03-08T07:03:27.922Z,4.28
2023-03-08T07:06:06.383Z,4.32
2023-03-08T07:08:33.354Z,4.34
2023-03-08T07:11:01.796Z,4.41
2023-03-08T07:13:29.745Z,4.46
2023-03-08T07:15:57.791Z,4.42
2023-03-08T07:18:26.166Z,4.31
2023-03-08T07:20:56.090Z,4.32
2023-03-08T07:23:23.746Z,4.28
2023-03-08T07:25:50.966Z,4.25
2023-03-08T07:28:17.838Z,4.28
2023-03-08T07:30:53.125Z,4.22
2023-03-08T07:33:21.551Z,4.22
2023-03-08T07:35:49.064Z,4.21
2023-03-08T07:38:17.151Z,4.13
2023-03-08T07:40:44.843Z,4.06
2023-03-08T07:43:11.939Z,4.03
2023-03-08T07:45:39.640Z,4.02
2023-03-08T07:48:07.227Z,4.01
2023-03-08T07:50:33.999Z,3.94
2023-03-08T07:53:01.308Z,3.93
2023-03-08T07:55:28.517Z,3.92
2023-03-08T07:57:55.367Z,3.97
2023-03-08T08:00:22.669Z,4.04
2023-03-08T08:02:49.519Z,4.06
2023-03-08T08:05:16.749Z,4.04
2023-03-08T08:07:47.857Z,4.10
2023-03-08T08:10:14.861Z,4.12
2023-03-08T08:12:41.596Z,4.12
2023-03-08T08:15:08.773Z,4.10
2023-03-08T08:17:35.655Z,4.07
2023-03-08T08:20:02.543Z,4.09
2023-03-08T08:22:29.297Z,4.08
2023-03-08T08:24:56.105Z,4.12
2023-03-08T08:27:22.873Z,4.13
2023-03-08T08:29:50.794Z,4.09
2023-03-08T08:32:17.636Z,4.10
2023-03-08T08:34:47.062Z,4.19
2023-03-08T08:37:13.896Z,4.21
2023-03-08T08:39:40.741Z,4.21
2023-03-08T08:42:07.977Z,4.50
2023-03-08T08:44:34.842Z,4.62
2023-03-08T08:47:01.687Z,4.52
2023-03-08T08:49:28.470Z,4.41
2023-03-08T08:51:55.271Z,4.36
2023-03-08T08:54:22.130Z,4.34
2023-03-08T08:56:48.944Z,4.35
2023-03-08T08:59:16.503Z,4.33
2023-03-08T09:01:44.059Z,4.39
2023-03-08T09:04:13.771Z,4.47
2023-03-08T09:06:41.012Z,4.49
2023-03-08T09:09:08.949Z,4.45
2023-03-08T09:11:42.174Z,4.47
2023-03-08T09:14:15.574Z,4.47
2023-03-08T09:16:42.459Z,4.54
2023-03-08T09:19:09.594Z,4.50
2023-03-08T09:21:36.620Z,4.51
2023-03-08T09:24:08.900Z,4.52
2023-03-08T09:26:37.786Z,4.57
2023-03-08T09:29:07.102Z,4.60
2023-03-08T09:31:37.548Z,4.67
2023-03-08T09:34:08.760Z,4.63
2023-03-08T09:36:39.366Z,4.71
2023-03-08T09:39:08.770Z,4.77
2023-03-08T09:41:44.890Z,4.89
2023-03-08T09:44:57.080Z,4.94
2023-03-08T09:47:50.835Z,5.03
2023-03-08T09:50:24.446Z,5.08
2023-03-08T09:53:24.590Z,5.22
2023-03-08T09:56:24.147Z,5.31
2023-03-08T09:59:07.663Z,5.43
2023-03-08T10:02:29.092Z,5.48
2023-03-08T10:05:14.154Z,5.47
2023-03-08T10:08:09.550Z,5.48
2023-03-08T10:11:00.233Z,5.54
2023-03-08T10:13:50.697Z,5.59
2023-03-08T10:16:37.797Z,5.66
2023-03-08T10:19:32.768Z,5.71
2023-03-08T10:22:09.195Z,5.75
2023-03-08T10:24:55.055Z,5.77
2023-03-08T10:27:27.195Z,5.81
2023-03-08T10:29:58.108Z,5.85
2023-03-08T10:32:27.342Z,5.90
2023-03-08T10:35:04.972Z,6.00
2023-03-08T10:37:34.612Z,6.05
2023-03-08T10:40:07.847Z,6.14
2023-03-08T10:42:36.186Z,6.26
2023-03-08T10:45:22.013Z,6.31
2023-03-08T10:48:17.517Z,6.41
2023-03-08T10:50:44.287Z,6.66
2023-03-08T10:53:20.902Z,7.12
2023-03-08T10:55:52.615Z,7.69
2023-03-08T10:58:40.571Z,8.15
2023-03-08T11:01:28.557Z,8.45
2023-03-08T11:04:21.463Z,8.48
2023-03-08T11:06:48.617Z,8.40
2023-03-08T11:09:27.863Z,8.43
2023-03-08T11:11:56.971Z,8.41
2023-03-08T11:14:29.368Z,8.46
2023-03-08T11:17:07.493Z,8.54
2023-03-08T11:20:11.758Z,8.72
2023-03-08T11:22:59.973Z,8.77
2023-03-08T11:25:55.491Z,8.87
2023-03-08T11:28:40.332Z,8.92
2023-03-08T11:31:31.369Z,8.99
2023-03-08T11:34:17.737Z,9.06
2023-03-08T11:37:21.794Z,9.04
2023-03-08T11:40:19.867Z,9.09
2023-03-08T11:43:30.429Z,9.16
2023-03-08T11:46:41.509Z,9.19
2023-03-08T11:49:40.733Z,9.20
2023-03-08T11:52:40.732Z,9.21
2023-03-08T11:55:32.578Z,9.34
2023-03-08T11:58:33.508Z,9.46
2023-03-08T12:01:07.541Z,9.54
2023-03-08T12:03:43.369Z,9.62
2023-03-08T12:06:29.338Z,9.65
2023-03-08T12:09:20.012Z,9.71
2023-03-08T12:11:56.951Z,9.75
2023-03-08T12:14:31.287Z,9.74
2023-03-08T12:17:25.024Z,9.68
2023-03-08T12:19:52.354Z,9.73
2023-03-08T12:22:53.945Z,9.80
2023-03-08T12:25:34.758Z,9.88
2023-03-08T12:28:20.723Z,9.88
2023-03-08T12:30:47.789Z,9.88
2023-03-08T12:33:18.118Z,9.92
2023-03-08T12:35:59.190Z,9.95
2023-03-08T12:38:42.393Z,9.97
2023-03-08T12:41:30.234Z,9.92
2023-03-08T12:44:23.345Z,9.97
2023-03-08T12:47:03.900Z,10.03
2023-03-08T12:49:37.404Z,10.06
2023-03-08T12:52:25.422Z,10.06
2023-03-08T12:55:09.088Z,10.06
2023-03-08T12:57:57.687Z,10.20
2023-03-08T13:00:31.877Z,10.39
2023-03-08T13:03:12.656Z,10.61
2023-03-08T13:05:49.699Z,10.64
2023-03-08T13:08:29.396Z,10.64
2023-03-08T13:11:00.838Z,10.68
2023-03-08T13:13:53.990Z,10.71
2023-03-08T13:16:39.887Z,10.80
2023-03-08T13:19:14.722Z,10.89
2023-03-08T13:21:55.730Z,10.91
2023-03-08T13:24:55.992Z,10.87
2023-03-08T13:28:05.168Z,10.85
2023-03-08T13:30:44.071Z,10.85
2023-03-08T13:33:21.771Z,10.76
2023-03-08T13:36:06.515Z,10.67
2023-03-08T13:38:40.160Z,10.58
2023-03-08T13:41:07.514Z,10.51
2023-03-08T13:43:35.925Z,10.39
2023-03-08T13:46:10.761Z,10.30
2023-03-08T13:48:37.893Z,10.20
2023-03-08T13:51:05.087Z,10.17
2023-03-08T13:53:36.419Z,10.15
2023-03-08T13:56:06.329Z,10.13
2023-03-08T13:58:48.424Z,10.14
2023-03-08T14:01:22.217Z,10.09
2023-03-08T14:03:51.525Z,10.04
2023-03-08T14:06:22.985Z,10.12
2023-03-08T14:08:51.450Z,10.10
2023-03-08T14:11:27.708Z,10.05
2023-03-08T14:13:57.664Z,9.94
2023-03-08T14:16:34.263Z,9.94
2023-03-08T14:19:32.416Z,10.00
2023-03-08T14:22:21.182Z,10.02
2023-03-08T14:25:03.046Z,10.04
2023-03-08T14:27:46.061Z,9.99
2023-03-08T14:30:22.929Z,9.99
2023-03-08T14:33:18.968Z,9.97
2023-03-08T14:35:59.877Z,9.90
2023-03-08T14:38:34.225Z,9.87
2023-03-08T14:41:10.138Z,9.84
2023-03-08T14:43:37.813Z,9.81
2023-03-08T14:46:09.065Z,9.79
2023-03-08T14:48:38.472Z,9.79
2023-03-08T14:51:19.809Z,9.84
2023-03-08T14:54:06.093Z,9.87
2023-03-08T14:56:34.834Z,9.89
2023-03-08T14:59:05.588Z,9.94
2023-03-08T15:01:35.465Z,10.05
2023-03-08T15:04:12.068Z,10.11
2023-03-08T15:06:40.728Z,10.22
2023-03-08T15:09:08.746Z,10.28
2023-03-08T15:11:36.267Z,10.27
2023-03-08T15:14:04.063Z,10.36
2023-03-08T15:16:31.130Z,10.42
2023-03-08T15:18:58.019Z,10.46
2023-03-08T15:21:28.273Z,10.47
2023-03-08T15:23:56.858Z,10.54
2023-03-08T15:26:28.664Z,10.49
2023-03-08T15:28:55.918Z,10.42
2023-03-08T15:31:23.105Z,10.41
2023-03-08T15:33:50.151Z,10.39
2023-03-08T15:36:19.650Z,10.36
2023-03-08T15:38:46.773Z,10.36
2023-03-08T15:41:16.420Z,10.36
2023-03-08T15:43:45.978Z,10.41
2023-03-08T15:46:15.331Z,10.47
2023-03-08T15:48:45.792Z,10.47
2023-03-08T15:51:22.365Z,10.46
2023-03-08T15:53:49.693Z,10.44
2023-03-08T15:56:16.987Z,10.38
2023-03-08T15:58:43.737Z,10.34
2023-03-08T16:01:11.830Z,10.34
2023-03-08T16:03:38.677Z,10.36
2023-03-08T16:06:13.840Z,10.38
2023-03-08T16:08:42.130Z,10.37
2023-03-08T16:11:11.343Z,10.33
2023-03-08T16:13:38.188Z,10.27
2023-03-08T16:16:07.062Z,10.31
2023-03-08T16:18:36.208Z,10.28
2023-03-08T16:21:09.009Z,10.30
2023-03-08T16:23:37.799Z,10.31
2023-03-08T16:26:17.081Z,10.29
2023-03-08T16:28:47.913Z,10.28
2023-03-08T16:31:19.755Z,10.28
2023-03-08T16:33:46.724Z,10.25
2023-03-08T16:36:16.901Z,10.17
2023-03-08T16:38:43.690Z,10.10
2023-03-08T16:41:13.888Z,10.04
2023-03-08T16:43:48.026Z,9.98
2023-03-08T16:46:21.194Z,9.98
2023-03-08T16:48:50.440Z,9.87
2023-03-08T16:51:20.798Z,9.83
2023-03-08T16:53:48.754Z,9.79
2023-03-08T16:56:29.648Z,9.74
2023-03-08T16:59:00.149Z,9.72
2023-03-08T17:01:28.584Z,9.74
2023-03-08T17:03:56.594Z,9.73
2023-03-08T17:06:31.322Z,9.70
2023-03-08T17:08:59.591Z,9.70
2023-03-08T17:11:33.139Z,9.67
2023-03-08T17:14:10.042Z,9.64
2023-03-08T17:16:38.119Z,9.61
2023-03-08T17:19:07.794Z,9.62
2023-03-08T17:21:38.621Z,9.60
2023-03-08T17:24:09.148Z,9.57
2023-03-08T17:26:41.502Z,9.61
2023-03-08T17:29:08.452Z,9.63
2023-03-08T17:31:35.453Z,9.75
2023-03-08T17:34:02.717Z,9.81
2023-03-08T17:36:29.956Z,9.92
2023-03-08T17:38:57.383Z,9.95
2023-03-08T17:41:24.212Z,9.98
2023-03-08T17:43:51.697Z,10.09
2023-03-08T17:46:27.165Z,10.13
2023-03-08T17:48:55.776Z,10.18
2023-03-08T17:51:27.069Z,10.17
2023-03-08T17:53:56.687Z,10.18
2023-03-08T17:56:29.391Z,10.23
2023-03-08T17:58:59.245Z,10.25
2023-03-08T18:01:32.218Z,10.26
2023-03-08T18:04:01.270Z,10.28
2023-03-08T18:06:42.129Z,10.35
2023-03-08T18:09:16.845Z,10.32
2023-03-08T18:11:48.739Z,10.28
2023-03-08T18:14:18.079Z,10.25
2023-03-08T18:16:46.705Z,10.28
2023-03-08T18:19:13.792Z,10.25
2023-03-08T18:21:41.535Z,10.24
2023-03-08T18:24:12.713Z,10.18
2023-03-08T18:26:39.527Z,10.12
2023-03-08T18:29:07.552Z,10.26
2023-03-08T18:31:37.102Z,10.31
2023-03-08T18:34:05.333Z,10.37
2023-03-08T18:36:32.880Z,10.30
2023-03-08T18:38:59.962Z,10.27
2023-03-08T18:41:29.549Z,10.31
2023-03-08T18:43:58.442Z,10.31
2023-03-08T18:46:29.148Z,10.24
2023-03-08T18:49:00.729Z,10.32
2023-03-08T18:51:29.928Z,10.28
2023-03-08T18:53:58.236Z,10.24
2023-03-08T18:56:27.351Z,10.25
2023-03-08T18:58:57.306Z,10.23
2023-03-08T19:01:24.338Z,10.22
2023-03-08T19:03:52.169Z,10.23
2023-03-08T19:06:18.979Z,10.32
2023-03-08T19:08:45.745Z,10.34
2023-03-08T19:11:20.471Z,10.29
2023-03-08T19:13:48.492Z,10.20
2023-03-08T19:16:31.839Z,10.14
2023-03-08T19:19:11.209Z,10.11
2023-03-08T19:21:48.539Z,10.06
2023-03-08T19:24:18.790Z,10.07
2023-03-08T19:26:48.852Z,10.08
2023-03-08T19:29:23.715Z,10.00
2023-03-08T19:31:57.186Z,9.97
2023-03-08T19:34:31.371Z,9.96
2023-03-08T19:36:59.494Z,9.93
2023-03-08T19:39:30.307Z,9.92
2023-03-08T19:42:01.981Z,9.93
2023-03-08T19:44:30.012Z,9.92
2023-03-08T19:46:57.145Z,9.89
2023-03-08T19:49:32.366Z,9.88
2023-03-08T19:52:04.465Z,9.85
2023-03-08T19:54:32.003Z,9.82
2023-03-08T19:57:00.151Z,9.79
2023-03-08T19:59:27.691Z,9.80
2023-03-08T20:01:56.134Z,9.75
2023-03-08T20:04:24.647Z,9.75
2023-03-08T20:06:52.068Z,9.78
2023-03-08T20:09:22.544Z,9.80
2023-03-08T20:11:58.455Z,9.77
2023-03-08T20:14:27.595Z,9.76
2023-03-08T20:16:55.727Z,9.78
2023-03-08T20:19:22.992Z,9.74
2023-03-08T20:21:49.818Z,9.71
2023-03-08T20:24:18.790Z,9.68
2023-03-08T20:26:46.173Z,9.69
2023-03-08T20:29:13.409Z,9.70
2023-03-08T20:31:40.218Z,9.68
2023-03-08T20:34:07.042Z,9.68
2023-03-08T20:36:33.874Z,9.66
2023-03-08T20:39:01.059Z,9.63
2023-03-08T20:41:28.933Z,9.66
2023-03-08T20:43:56.350Z,9.62
2023-03-08T20:46:28.248Z,9.64
2023-03-08T20:48:55.272Z,9.65
2023-03-08T20:51:24.046Z,9.63
2023-03-08T20:53:54.352Z,9.63
2023-03-08T20:56:24.246Z,9.64
2023-03-08T20:58:54.395Z,9.70
2023-03-08T21:01:32.201Z,9.74
2023-03-08T21:03:59.507Z,9.73
2023-03-08T21:06:30.696Z,9.78
2023-03-08T21:08:59.519Z,9.77
2023-03-08T21:11:27.448Z,9.76
2023-03-08T21:13:55.523Z,9.75
2023-03-08T21:16:25.205Z,9.81
2023-03-08T21:18:58.736Z,9.80
2023-03-08T21:21:34.126Z,9.84
2023-03-08T21:24:16.285Z,9.85
2023-03-08T21:26:44.522Z,9.80
2023-03-08T21:29:18.614Z,9.78
2023-03-08T21:31:53.431Z,9.77
2023-03-08T21:34:21.473Z,9.77
2023-03-08T21:36:48.552Z,9.73
2023-03-08T21:39:15.839Z,9.72
2023-03-08T21:41:47.635Z,9.71
2023-03-08T21:44:19.239Z,9.68
2023-03-08T21:46:47.891Z,9.68
2023-03-08T21:49:26.586Z,9.66
2023-03-08T21:51:55.751Z,9.65
2023-03-08T21:54:25.449Z,9.66
2023-03-08T21:56:53.039Z,9.69
2023-03-08T21:59:23.884Z,9.64
2023-03-08T22:01:53.978Z,9.68
2023-03-08T22:04:21.465Z,9.79
2023-03-08T22:06:48.326Z,9.90
2023-03-08T22:09:15.424Z,9.97
2023-03-08T22:11:42.351Z,10.02
2023-03-08T22:14:10.369Z,10.01
2023-03-08T22:16:39.844Z,9.95
2023-03-08T22:19:06.941Z,9.95
2023-03-08T22:21:33.956Z,9.88
2023-03-08T22:24:02.743Z,9.86
2023-03-08T22:26:31.386Z,9.84
2023-03-08T22:28:59.116Z,9.79
2023-03-08T22:31:29.429Z,9.79
2023-03-08T22:33:57.608Z,9.77
2023-03-08T22:36:24.927Z,9.73
2023-03-08T22:38:54.281Z,9.72
2023-03-08T22:41:25.284Z,9.77
2023-03-08T22:43:53.036Z,9.75
2023-03-08T22:46:27.803Z,9.72
2023-03-08T22:48:58.070Z,9.69
2023-03-08T22:51:28.237Z,9.65
2023-03-08T22:53:56.410Z,9.63
2023-03-08T22:56:31.727Z,9.58
2023-03-08T22:59:00.625Z,9.56
2023-03-08T23:01:30.508Z,9.50
2023-03-08T23:03:59.734Z,9.55
2023-03-08T23:06:29.163Z,9.62
2023-03-08T23:08:59.658Z,9.66
2023-03-08T23:11:27.932Z,9.69
2023-03-08T23:13:54.964Z,9.69
2023-03-08T23:16:22.217Z,9.68
2023-03-08T23:18:52.140Z,9.69
2023-03-08T23:21:23.091Z,9.73
2023-03-08T23:23:50.318Z,9.84
2023-03-08T23:26:21.195Z,9.92
2023-03-08T23:28:48.370Z,9.94
2023-03-08T23:31:19.692Z,9.97
2023-03-08T23:33:48.028Z,9.93
2023-03-08T23:36:17.738Z,9.91
2023-03-08T23:38:44.963Z,9.89
2023-03-08T23:41:14.474Z,9.86
2023-03-08T23:43:42.533Z,9.85
2023-03-08T23:46:16.222Z,9.85
2023-03-08T23:48:45.255Z,9.83
2023-03-08T23:51:18.430Z,9.78
2023-03-08T23:53:49.359Z,9.74
2023-03-08T23:56:26.478Z,9.72
2023-03-08T23:58:59.298Z,9.69
